createdAt,value
2022-08-18T00:00:16.479Z,1012.47
2022-08-18T00:02:03.095Z,1012.47
2022-08-18T00:04:36.392Z,1012.63
2022-08-18T00:06:01.669Z,1012.63
2022-08-18T00:08:02.419Z,1012.55
2022-08-18T00:10:01.976Z,1012.55
2022-08-18T00:12:01.690Z,1012.53
2022-08-18T00:14:01.582Z,1012.53
2022-08-18T00:16:02.078Z,1012.47
2022-08-18T00:18:02.248Z,1012.47
2022-08-18T00:20:02.105Z,1012.37
2022-08-18T00:22:02.043Z,1012.37
2022-08-18T00:24:02.320Z,1012.33
2022-08-18T00:26:02.335Z,1012.33
2022-08-18T00:28:01.642Z,1012.36
2022-08-18T00:30:02.591Z,1012.36
2022-08-18T00:32:01.562Z,1012.38
2022-08-18T00:34:02.557Z,1012.38
2022-08-18T00:36:02.025Z,1012.31
2022-08-18T00:38:02.232Z,1012.31
2022-08-18T00:40:02.107Z,1012.3
2022-08-18T00:42:01.684Z,1012.3
2022-08-18T00:44:01.966Z,1012.28
2022-08-18T00:46:02.654Z,1012.28
2022-08-18T00:48:01.661Z,1012.12
2022-08-18T00:50:01.854Z,1012.12
2022-08-18T00:52:01.762Z,1012.06
2022-08-18T00:54:02.264Z,1012.06
2022-08-18T00:56:02.428Z,1012.29
2022-08-18T00:58:01.589Z,1012.29
2022-08-18T01:00:05.544Z,1012.32
2022-08-18T01:02:02.478Z,1012.32
2022-08-18T01:04:01.985Z,1012.27
2022-08-18T01:06:02.470Z,1012.27
2022-08-18T01:08:01.974Z,1012.35
2022-08-18T01:10:02.042Z,1012.35
2022-08-18T01:12:46.900Z,1012.32
2022-08-18T01:14:02.309Z,1012.32
2022-08-18T01:16:01.833Z,1012.35
2022-08-18T01:18:01.743Z,1012.35
2022-08-18T01:20:01.740Z,1012.2
2022-08-18T01:22:02.415Z,1012.2
2022-08-18T01:24:01.811Z,1012.21
2022-08-18T01:26:02.228Z,1012.21
2022-08-18T01:28:02.130Z,1012.32
2022-08-18T01:30:01.710Z,1012.32
2022-08-18T01:32:01.915Z,1012.23
2022-08-18T01:34:02.452Z,1012.23
2022-08-18T01:36:02.336Z,1012.24
2022-08-18T01:38:01.831Z,1012.24
2022-08-18T01:41:30.445Z,1012.19
2022-08-18T01:42:02.040Z,1012.19
2022-08-18T01:44:02.098Z,1012.37
2022-08-18T01:46:02.471Z,1012.37
2022-08-18T01:48:03.200Z,1012.29
2022-08-18T01:50:02.432Z,1012.29
2022-08-18T01:52:01.764Z,1012.31
2022-08-18T01:54:02.343Z,1012.31
2022-08-18T01:56:01.867Z,1012.26
2022-08-18T01:58:01.656Z,1012.26
2022-08-18T02:00:05.384Z,1012.19
2022-08-18T02:02:02.608Z,1012.19
2022-08-18T02:04:36.086Z,1012.24
2022-08-18T02:06:02.059Z,1012.24
2022-08-18T02:08:02.040Z,1012.29
2022-08-18T02:10:02.595Z,1012.29
2022-08-18T02:12:01.846Z,1012.35
2022-08-18T02:14:02.305Z,1012.35
2022-08-18T02:16:02.333Z,1012.35
2022-08-18T02:18:01.898Z,1012.35
2022-08-18T02:20:04.413Z,1012.3
2022-08-18T02:22:01.836Z,1012.41
2022-08-18T02:24:02.461Z,1012.41
2022-08-18T02:26:01.679Z,1012.49
2022-08-18T02:28:02.208Z,1012.49
2022-08-18T02:30:01.662Z,1012.44
2022-08-18T02:32:01.914Z,1012.44
2022-08-18T02:34:02.432Z,1012.44
2022-08-18T02:36:01.856Z,1012.44
2022-08-18T02:38:04.112Z,1012.48
2022-08-18T02:40:02.896Z,1012.48
2022-08-18T02:42:01.792Z,1012.51
2022-08-18T02:44:01.830Z,1012.51
2022-08-18T02:46:01.707Z,1012.5
2022-08-18T02:48:01.787Z,1012.5
2022-08-18T02:50:02.672Z,1012.57
2022-08-18T02:52:02.000Z,1012.57
2022-08-18T02:54:02.552Z,1012.61
2022-08-18T02:56:02.225Z,1012.61
2022-08-18T02:58:01.652Z,1012.67
2022-08-18T03:00:05.221Z,1012.67
2022-08-18T03:02:02.226Z,1012.66
2022-08-18T03:04:01.876Z,1012.66
2022-08-18T03:06:02.112Z,1012.6
2022-08-18T03:08:01.845Z,1012.6
2022-08-18T03:10:34.287Z,1012.64
2022-08-18T03:12:02.110Z,1012.64
2022-08-18T03:14:02.404Z,1012.75
2022-08-18T03:16:02.352Z,1012.75
2022-08-18T03:18:02.391Z,1012.65
2022-08-18T03:20:02.982Z,1012.65
2022-08-18T03:22:03.757Z,1012.62
2022-08-18T03:24:03.125Z,1012.62
2022-08-18T03:26:01.804Z,1012.74
2022-08-18T03:28:01.606Z,1012.74
2022-08-18T03:30:02.067Z,1012.76
2022-08-18T03:32:02.168Z,1012.76
2022-08-18T03:34:01.591Z,1012.73
2022-08-18T03:36:01.854Z,1012.73
2022-08-18T03:38:02.414Z,1012.77
2022-08-18T03:40:02.145Z,1012.77
2022-08-18T03:42:02.601Z,1012.79
2022-08-18T03:44:02.330Z,1012.79
2022-08-18T03:46:01.666Z,1012.68
2022-08-18T03:48:01.920Z,1012.68
2022-08-18T03:50:02.404Z,1012.74
2022-08-18T03:52:02.424Z,1012.74
2022-08-18T03:54:02.149Z,1012.83
2022-08-18T03:56:01.936Z,1012.83
2022-08-18T03:58:01.971Z,1012.76
2022-08-18T04:00:05.643Z,1012.76
2022-08-18T04:02:01.854Z,1012.7
2022-08-18T04:04:02.317Z,1012.7
2022-08-18T04:06:01.612Z,1012.77
2022-08-18T04:08:02.569Z,1012.77
2022-08-18T04:10:02.139Z,1012.71
2022-08-18T04:12:02.343Z,1012.71
2022-08-18T04:14:02.697Z,1012.84
2022-08-18T04:16:02.539Z,1012.84
2022-08-18T04:18:04.651Z,1012.74
2022-08-18T04:20:02.432Z,1012.74
2022-08-18T04:22:02.009Z,1012.7
2022-08-18T04:24:01.951Z,1012.7
2022-08-18T04:26:02.392Z,1012.71
2022-08-18T04:28:01.593Z,1012.71
2022-08-18T04:30:01.885Z,1012.71
2022-08-18T04:32:02.367Z,1012.71
2022-08-18T04:34:01.916Z,1012.71
2022-08-18T04:36:01.555Z,1012.71
2022-08-18T04:38:02.480Z,1012.7
2022-08-18T04:40:02.444Z,1012.7
2022-08-18T04:42:01.773Z,1012.7
2022-08-18T04:44:02.222Z,1012.7
2022-08-18T04:46:02.471Z,1012.65
2022-08-18T04:48:02.171Z,1012.65
2022-08-18T04:50:02.506Z,1012.69
2022-08-18T04:52:41.783Z,1012.69
2022-08-18T04:54:02.059Z,1012.7
2022-08-18T04:56:01.926Z,1012.7
2022-08-18T04:58:01.843Z,1012.6
2022-08-18T05:00:05.302Z,1012.6
2022-08-18T05:02:02.211Z,1012.68
2022-08-18T05:04:01.550Z,1012.68
2022-08-18T05:06:02.057Z,1012.53
2022-08-18T05:08:02.480Z,1012.53
2022-08-18T05:10:02.535Z,1012.56
2022-08-18T05:12:01.654Z,1012.56
2022-08-18T05:14:01.764Z,1012.48
2022-08-18T05:16:16.809Z,1012.48
2022-08-18T05:18:02.141Z,1012.41
2022-08-18T05:20:02.460Z,1012.41
2022-08-18T05:22:03.744Z,1012.56
2022-08-18T05:24:01.898Z,1012.56
2022-08-18T05:26:02.391Z,1012.64
2022-08-18T05:28:02.496Z,1012.64
2022-08-18T05:30:02.039Z,1012.66
2022-08-18T05:32:02.056Z,1012.66
2022-08-18T05:34:02.394Z,1012.61
2022-08-18T05:36:01.922Z,1012.61
2022-08-18T05:38:02.326Z,1012.59
2022-08-18T05:40:11.535Z,1012.59
2022-08-18T05:42:01.745Z,1012.58
2022-08-18T05:44:02.115Z,1012.58
2022-08-18T05:46:02.137Z,1012.64
2022-08-18T05:48:02.195Z,1012.53
2022-08-18T05:50:01.856Z,1012.53
2022-08-18T05:52:02.358Z,1012.66
2022-08-18T05:54:01.986Z,1012.66
2022-08-18T05:56:02.278Z,1012.64
2022-08-18T05:58:01.759Z,1012.64
2022-08-18T06:00:05.748Z,1012.82
2022-08-18T06:02:01.796Z,1012.82
2022-08-18T06:04:01.994Z,1012.83
2022-08-18T06:06:01.692Z,1012.83
2022-08-18T06:08:01.624Z,1012.69
2022-08-18T06:10:01.762Z,1012.69
2022-08-18T06:12:01.696Z,1012.69
2022-08-18T06:14:02.257Z,1012.69
2022-08-18T06:16:02.002Z,1012.71
2022-08-18T06:18:02.457Z,1012.71
2022-08-18T06:20:02.246Z,1012.66
2022-08-18T06:22:02.126Z,1012.66
2022-08-18T06:24:01.744Z,1012.68
2022-08-18T06:26:02.381Z,1012.68
2022-08-18T06:28:01.786Z,1012.64
2022-08-18T06:30:02.051Z,1012.64
2022-08-18T06:32:02.219Z,1012.74
2022-08-18T06:34:02.505Z,1012.74
2022-08-18T06:36:01.885Z,1012.68
2022-08-18T06:38:02.369Z,1012.68
2022-08-18T06:40:02.935Z,1012.64
2022-08-18T06:42:02.317Z,1012.64
2022-08-18T06:44:01.898Z,1012.86
2022-08-18T06:46:01.711Z,1012.86
2022-08-18T06:48:01.901Z,1012.87
2022-08-18T06:50:02.368Z,1012.87
2022-08-18T06:52:02.138Z,1012.77
2022-08-18T06:54:01.804Z,1012.77
2022-08-18T06:56:03.401Z,1012.88
2022-08-18T06:58:02.313Z,1012.88
2022-08-18T07:00:06.832Z,1012.9
2022-08-18T07:02:01.875Z,1012.9
2022-08-18T07:04:02.118Z,1012.82
2022-08-18T07:06:01.582Z,1012.82
2022-08-18T07:08:01.676Z,1012.9
2022-08-18T07:10:04.470Z,1012.9
2022-08-18T07:12:01.918Z,1012.88
2022-08-18T07:14:17.349Z,1012.88
2022-08-18T07:16:01.647Z,1012.98
2022-08-18T07:18:02.244Z,1012.98
2022-08-18T07:20:01.695Z,1013.06
2022-08-18T07:22:01.902Z,1013.06
2022-08-18T07:24:25.697Z,1013.07
2022-08-18T07:26:02.219Z,1013.07
2022-08-18T07:28:02.351Z,1012.98
2022-08-18T07:30:01.658Z,1012.98
2022-08-18T07:32:01.783Z,1013.03
2022-08-18T07:34:02.333Z,1013.03
2022-08-18T07:36:02.221Z,1013.08
2022-08-18T07:38:43.101Z,1013.08
2022-08-18T07:40:02.233Z,1013.03
2022-08-18T07:42:02.162Z,1013.03
2022-08-18T07:44:01.800Z,1013.13
2022-08-18T07:46:02.136Z,1013.13
2022-08-18T07:48:38.775Z,1013.1
2022-08-18T07:52:04.163Z,1013.16
2022-08-18T07:54:02.273Z,1013.16
2022-08-18T07:56:02.139Z,1013.24
2022-08-18T07:58:01.610Z,1013.24
2022-08-18T08:00:17.372Z,1013.2
2022-08-18T08:02:02.434Z,1013.2
2022-08-18T08:04:01.864Z,1013.22
2022-08-18T08:06:02.305Z,1013.22
2022-08-18T08:08:02.267Z,1013.23
2022-08-18T08:10:02.641Z,1013.23
2022-08-18T08:12:02.113Z,1013.48
2022-08-18T08:14:02.527Z,1013.48
2022-08-18T08:16:01.573Z,1013.44
2022-08-18T08:18:02.065Z,1013.44
2022-08-18T08:20:02.854Z,1013.38
2022-08-18T08:22:01.963Z,1013.38
2022-08-18T08:24:02.036Z,1013.28
2022-08-18T08:26:01.931Z,1013.28
2022-08-18T08:28:01.885Z,1013.37
2022-08-18T08:30:02.124Z,1013.37
2022-08-18T08:32:01.899Z,1013.44
2022-08-18T08:34:06.433Z,1013.44
2022-08-18T08:36:02.357Z,1013.47
2022-08-18T08:38:42.932Z,1013.47
2022-08-18T08:40:02.056Z,1013.45
2022-08-18T08:42:35.372Z,1013.45
2022-08-18T08:44:02.160Z,1013.4
2022-08-18T08:46:01.970Z,1013.4
2022-08-18T08:48:09.857Z,1013.31
2022-08-18T08:50:01.696Z,1013.31
2022-08-18T08:52:02.093Z,1013.35
2022-08-18T08:54:01.623Z,1013.35
2022-08-18T08:56:03.132Z,1013.25
2022-08-18T08:58:02.350Z,1013.25
2022-08-18T09:00:05.207Z,1013.33
2022-08-18T09:02:02.545Z,1013.33
2022-08-18T09:04:02.318Z,1013.27
2022-08-18T09:06:01.602Z,1013.27
2022-08-18T09:08:02.064Z,1013.28
2022-08-18T09:10:04.247Z,1013.28
2022-08-18T09:12:01.942Z,1013.2
2022-08-18T09:14:01.574Z,1013.26
2022-08-18T09:16:13.985Z,1013.26
2022-08-18T09:18:02.033Z,1013.31
2022-08-18T09:20:02.547Z,1013.31
2022-08-18T09:22:02.213Z,1013.36
2022-08-18T09:24:02.272Z,1013.36
2022-08-18T09:26:04.416Z,1013.29
2022-08-18T09:28:12.074Z,1013.29
2022-08-18T09:30:02.543Z,1013.38
2022-08-18T09:32:03.622Z,1013.38
2022-08-18T09:34:11.283Z,1013.46
2022-08-18T09:36:02.770Z,1013.46
2022-08-18T09:38:02.940Z,1013.36
2022-08-18T09:40:13.081Z,1013.36
2022-08-18T09:42:03.663Z,1013.24
2022-08-18T09:44:03.908Z,1013.24
2022-08-18T09:46:01.841Z,1013.36
2022-08-18T09:48:03.287Z,1013.36
2022-08-18T09:50:04.223Z,1013.34
2022-08-18T09:52:02.636Z,1013.34
2022-08-18T09:54:01.956Z,1013.33
2022-08-18T09:56:05.827Z,1013.33
2022-08-18T09:58:02.356Z,1013.25
2022-08-18T10:00:04.900Z,1013.25
2022-08-18T10:02:03.611Z,1013.3
2022-08-18T10:04:03.077Z,1013.3
2022-08-18T10:06:02.568Z,1013.32
2022-08-18T10:08:04.003Z,1013.32
2022-08-18T10:11:09.025Z,1013.32
2022-08-18T10:12:02.634Z,1013.32
2022-08-18T10:14:01.701Z,1013.19
2022-08-18T10:18:02.335Z,1013.22
2022-08-18T10:20:02.665Z,1013.22
2022-08-18T10:22:01.726Z,1013.21
2022-08-18T10:24:36.409Z,1013.21
2022-08-18T10:28:02.024Z,1013.03
2022-08-18T10:30:03.554Z,1013.03
2022-08-18T10:32:01.899Z,1013.03
2022-08-18T10:34:05.497Z,1013.17
2022-08-18T10:36:03.454Z,1013.17
2022-08-18T10:38:01.728Z,1013.21
2022-08-18T10:40:02.486Z,1013.21
2022-08-18T10:42:01.950Z,1013.26
2022-08-18T10:44:29.078Z,1013.26
2022-08-18T10:48:02.121Z,1013.14
2022-08-18T10:50:02.114Z,1013.27
2022-08-18T10:52:03.373Z,1013.27
2022-08-18T10:54:03.561Z,1013.15
2022-08-18T10:56:05.437Z,1013.15
2022-08-18T10:58:02.199Z,1013.08
2022-08-18T11:00:05.486Z,1013.08
2022-08-18T11:02:02.563Z,1013.17
2022-08-18T11:04:28.424Z,1013.17
2022-08-18T11:06:02.879Z,1013.2
2022-08-18T11:08:01.931Z,1013.2
2022-08-18T11:10:30.772Z,1013.22
2022-08-18T11:12:02.529Z,1013.22
2022-08-18T11:14:02.749Z,1013.22
2022-08-18T11:16:02.274Z,1013.22
2022-08-18T11:18:02.733Z,1013.11
2022-08-18T11:20:02.242Z,1013.11
2022-08-18T11:22:02.422Z,1013.19
2022-08-18T11:24:02.125Z,1013.19
2022-08-18T11:26:02.071Z,1013.01
2022-08-18T11:28:01.684Z,1013.01
2022-08-18T11:30:03.525Z,1012.99
2022-08-18T11:32:04.101Z,1012.99
2022-08-18T11:34:02.296Z,1013.1
2022-08-18T11:36:02.114Z,1013.1
2022-08-18T11:38:01.959Z,1013.16
2022-08-18T11:40:02.566Z,1013.16
2022-08-18T11:42:02.508Z,1013.07
2022-08-18T11:44:02.739Z,1013.07
2022-08-18T11:46:03.035Z,1013
2022-08-18T11:48:02.433Z,1013
2022-08-18T11:50:04.748Z,1012.98
2022-08-18T11:52:03.285Z,1012.98
2022-08-18T11:54:02.600Z,1012.93
2022-08-18T11:56:01.835Z,1012.93
2022-08-18T11:58:02.618Z,1012.85
2022-08-18T12:00:06.172Z,1012.85
2022-08-18T12:02:02.201Z,1012.9
2022-08-18T12:04:02.351Z,1012.9
2022-08-18T12:06:01.815Z,1012.79
2022-08-18T12:08:09.132Z,1012.79
2022-08-18T12:10:19.257Z,1012.76
2022-08-18T12:12:02.194Z,1012.76
2022-08-18T12:16:02.626Z,1012.59
2022-08-18T12:18:02.030Z,1012.73
2022-08-18T12:20:02.327Z,1012.73
2022-08-18T12:22:12.078Z,1012.53
2022-08-18T12:24:02.179Z,1012.53
2022-08-18T12:26:02.564Z,1012.58
2022-08-18T12:28:02.349Z,1012.58
2022-08-18T12:30:03.270Z,1012.6
2022-08-18T12:32:02.244Z,1012.6
2022-08-18T12:34:02.497Z,1012.54
2022-08-18T12:36:04.389Z,1012.54
2022-08-18T12:38:14.534Z,1012.43
2022-08-18T12:40:02.340Z,1012.51
2022-08-18T12:42:02.455Z,1012.51
2022-08-18T12:44:02.846Z,1012.68
2022-08-18T12:46:02.192Z,1012.68
2022-08-18T12:48:04.713Z,1012.66
2022-08-18T12:50:04.648Z,1012.66
2022-08-18T12:52:04.283Z,1012.67
2022-08-18T12:54:03.607Z,1012.67
2022-08-18T12:56:02.760Z,1012.56
2022-08-18T12:58:01.973Z,1012.56
2022-08-18T13:00:07.851Z,1012.62
2022-08-18T13:02:02.020Z,1012.62
2022-08-18T13:04:15.500Z,1012.64
2022-08-18T13:06:02.053Z,1012.64
2022-08-18T13:08:05.053Z,1012.85
2022-08-18T13:10:02.388Z,1012.85
2022-08-18T13:12:02.514Z,1012.71
2022-08-18T13:14:09.245Z,1012.71
2022-08-18T13:16:03.933Z,1012.84
2022-08-18T13:18:02.168Z,1012.84
2022-08-18T13:20:01.964Z,1012.62
2022-08-18T13:22:03.675Z,1012.62
2022-08-18T13:24:02.526Z,1012.76
2022-08-18T13:26:03.619Z,1012.76
2022-08-18T13:28:02.751Z,1012.81
2022-08-18T13:30:02.593Z,1012.81
2022-08-18T13:32:02.461Z,1012.85
2022-08-18T13:34:05.435Z,1012.85
2022-08-18T13:36:02.114Z,1012.88
2022-08-18T13:38:20.785Z,1012.88
2022-08-18T13:40:04.362Z,1013.01
2022-08-18T13:42:32.191Z,1013.01
2022-08-18T13:44:03.721Z,1013.05
2022-08-18T13:46:02.156Z,1013.05
2022-08-18T13:48:02.477Z,1013.05
2022-08-18T13:50:04.946Z,1013.05
2022-08-18T13:52:12.140Z,1013.07
2022-08-18T13:54:31.687Z,1013.07
2022-08-18T13:56:04.156Z,1013.18
2022-08-18T13:58:02.229Z,1013.18
2022-08-18T14:00:05.206Z,1013.23
2022-08-18T14:02:02.685Z,1013.23
2022-08-18T14:04:02.219Z,1013.41
2022-08-18T14:06:02.775Z,1013.41
2022-08-18T14:08:01.972Z,1013.23
2022-08-18T14:10:05.571Z,1013.23
2022-08-18T14:12:02.532Z,1013.2
2022-08-18T14:14:02.686Z,1013.2
2022-08-18T14:16:03.198Z,1013.28
2022-08-18T14:18:06.307Z,1013.28
2022-08-18T14:20:02.995Z,1013.37
2022-08-18T14:22:02.779Z,1013.37
2022-08-18T14:24:02.327Z,1013.21
2022-08-18T14:26:02.280Z,1013.21
2022-08-18T14:28:04.918Z,1013.23
2022-08-18T14:30:02.432Z,1013.23
2022-08-18T14:32:01.716Z,1013.2
2022-08-18T14:34:04.891Z,1013.2
2022-08-18T14:36:10.001Z,1013.14
2022-08-18T14:38:02.877Z,1013.14
2022-08-18T14:40:02.722Z,1013
2022-08-18T14:42:03.459Z,1013
2022-08-18T14:44:16.879Z,1013.18
2022-08-18T14:46:03.395Z,1013.18
2022-08-18T14:48:07.530Z,1013.04
2022-08-18T14:50:02.219Z,1013.04
2022-08-18T14:52:01.574Z,1013.01
2022-08-18T14:54:02.195Z,1013.01
2022-08-18T14:56:01.833Z,1013.06
2022-08-18T14:58:02.309Z,1013.06
2022-08-18T15:00:06.070Z,1013.08
2022-08-18T15:02:02.212Z,1013.08
2022-08-18T15:04:19.919Z,1013.08
2022-08-18T15:06:05.453Z,1013.08
2022-08-18T15:08:02.660Z,1013.17
2022-08-18T15:10:19.973Z,1013.17
2022-08-18T15:12:03.109Z,1013.16
2022-08-18T15:14:01.566Z,1013.16
2022-08-18T15:16:02.571Z,1013.05
2022-08-18T15:18:01.609Z,1013.05
2022-08-18T15:20:02.753Z,1013
2022-08-18T15:22:02.267Z,1013
2022-08-18T15:24:01.887Z,1012.96
2022-08-18T15:26:04.446Z,1012.96
2022-08-18T15:28:01.888Z,1012.86
2022-08-18T15:30:02.400Z,1012.86
2022-08-18T15:32:10.450Z,1012.87
2022-08-18T15:34:02.701Z,1012.87
2022-08-18T15:36:01.916Z,1012.85
2022-08-18T15:38:05.810Z,1012.85
2022-08-18T15:40:03.146Z,1012.77
2022-08-18T15:42:05.164Z,1012.77
2022-08-18T15:44:04.445Z,1013.04
2022-08-18T15:46:04.016Z,1013.04
2022-08-18T15:48:01.961Z,1013.09
2022-08-18T15:50:26.247Z,1013.09
2022-08-18T15:52:02.563Z,1013.03
2022-08-18T15:54:01.957Z,1013.03
2022-08-18T15:56:04.666Z,1012.89
2022-08-18T15:58:01.779Z,1012.89
2022-08-18T16:00:06.295Z,1012.91
2022-08-18T16:02:02.624Z,1012.88
2022-08-18T16:04:04.393Z,1012.88
2022-08-18T16:06:01.957Z,1012.87
2022-08-18T16:08:01.755Z,1012.87
2022-08-18T16:10:02.269Z,1012.7
2022-08-18T16:12:02.454Z,1012.7
2022-08-18T16:14:01.932Z,1012.72
2022-08-18T16:16:02.202Z,1012.72
2022-08-18T16:18:02.368Z,1012.74
2022-08-18T16:20:01.834Z,1012.74
2022-08-18T16:22:02.402Z,1012.73
2022-08-18T16:24:02.063Z,1012.73
2022-08-18T16:26:01.830Z,1012.6
2022-08-18T16:28:02.544Z,1012.6
2022-08-18T16:30:01.952Z,1012.62
2022-08-18T16:32:04.717Z,1012.62
2022-08-18T16:34:02.066Z,1012.62
2022-08-18T16:36:01.934Z,1012.62
2022-08-18T16:38:03.450Z,1012.73
2022-08-18T16:40:02.661Z,1012.73
2022-08-18T16:42:02.273Z,1012.72
2022-08-18T16:44:02.471Z,1012.72
2022-08-18T16:46:02.513Z,1012.62
2022-08-18T16:48:02.518Z,1012.62
2022-08-18T16:50:01.979Z,1012.49
2022-08-18T16:52:02.312Z,1012.49
2022-08-18T16:54:01.959Z,1012.55
2022-08-18T16:56:01.679Z,1012.55
2022-08-18T16:58:02.515Z,1012.58
2022-08-18T17:00:07.113Z,1012.58
2022-08-18T17:02:02.369Z,1012.6
2022-08-18T17:04:02.324Z,1012.6
2022-08-18T17:06:02.114Z,1012.52
2022-08-18T17:08:01.767Z,1012.52
2022-08-18T17:10:01.726Z,1012.54
2022-08-18T17:12:02.218Z,1012.54
2022-08-18T17:14:02.402Z,1012.48
2022-08-18T17:16:02.014Z,1012.48
2022-08-18T17:18:02.007Z,1012.45
2022-08-18T17:20:11.214Z,1012.45
2022-08-18T17:22:02.368Z,1012.44
2022-08-18T17:24:04.083Z,1012.44
2022-08-18T17:26:02.921Z,1012.47
2022-08-18T17:28:01.884Z,1012.47
2022-08-18T17:30:01.826Z,1012.47
2022-08-18T17:32:01.613Z,1012.47
2022-08-18T17:34:02.035Z,1012.4
2022-08-18T17:36:02.130Z,1012.4
2022-08-18T17:38:02.526Z,1012.44
2022-08-18T17:40:02.004Z,1012.44
2022-08-18T17:42:01.973Z,1012.38
2022-08-18T17:44:05.972Z,1012.38
2022-08-18T17:46:02.075Z,1012.51
2022-08-18T17:48:01.969Z,1012.51
2022-08-18T17:50:28.809Z,1012.39
2022-08-18T17:52:04.925Z,1012.39
2022-08-18T17:54:03.193Z,1012.4
2022-08-18T17:56:02.398Z,1012.4
2022-08-18T17:58:02.451Z,1012.37
2022-08-18T18:00:05.353Z,1012.37
2022-08-18T18:02:03.514Z,1012.38
2022-08-18T18:04:01.778Z,1012.38
2022-08-18T18:06:01.764Z,1012.47
2022-08-18T18:08:02.173Z,1012.47
2022-08-18T18:10:02.507Z,1012.52
2022-08-18T18:12:01.715Z,1012.52
2022-08-18T18:14:02.501Z,1012.61
2022-08-18T18:16:01.898Z,1012.61
2022-08-18T18:18:02.299Z,1012.65
2022-08-18T18:20:02.531Z,1012.65
2022-08-18T18:22:02.476Z,1012.49
2022-08-18T18:24:02.576Z,1012.49
2022-08-18T18:26:01.870Z,1012.41
2022-08-18T18:28:02.001Z,1012.41
2022-08-18T18:30:01.868Z,1012.4
2022-08-18T18:32:02.002Z,1012.4
2022-08-18T18:34:01.652Z,1012.28
2022-08-18T18:36:01.741Z,1012.28
2022-08-18T18:38:01.730Z,1012.34
2022-08-18T18:40:02.338Z,1012.34
2022-08-18T18:42:02.364Z,1012.34
2022-08-18T18:44:01.612Z,1012.34
2022-08-18T18:46:01.869Z,1012.35
2022-08-18T18:48:01.953Z,1012.35
2022-08-18T18:50:02.274Z,1012.33
2022-08-18T18:52:02.213Z,1012.33
2022-08-18T18:54:01.862Z,1012.35
2022-08-18T18:56:01.949Z,1012.35
2022-08-18T18:58:02.048Z,1012.54
2022-08-18T19:00:04.808Z,1012.54
2022-08-18T19:02:01.902Z,1012.55
2022-08-18T19:04:02.134Z,1012.55
2022-08-18T19:06:02.285Z,1012.49
2022-08-18T19:08:01.923Z,1012.49
2022-08-18T19:10:02.242Z,1012.47
2022-08-18T19:12:03.916Z,1012.47
2022-08-18T19:14:02.383Z,1012.41
2022-08-18T19:16:02.364Z,1012.41
2022-08-18T19:18:01.984Z,1012.44
2022-08-18T19:20:02.559Z,1012.44
2022-08-18T19:22:06.990Z,1012.31
2022-08-18T19:24:01.564Z,1012.31
2022-08-18T19:26:08.551Z,1012.33
2022-08-18T19:28:02.232Z,1012.33
2022-08-18T19:30:01.648Z,1012.46
2022-08-18T19:32:02.491Z,1012.42
2022-08-18T19:34:08.735Z,1012.42
2022-08-18T19:36:02.983Z,1012.39
2022-08-18T19:38:04.930Z,1012.39
2022-08-18T19:40:02.503Z,1012.35
2022-08-18T19:42:02.456Z,1012.35
2022-08-18T19:44:02.010Z,1012.35
2022-08-18T19:46:01.782Z,1012.35
2022-08-18T19:48:02.485Z,1012.45
2022-08-18T19:50:02.305Z,1012.45
2022-08-18T19:52:02.026Z,1012.42
2022-08-18T19:54:01.690Z,1012.42
2022-08-18T19:56:01.924Z,1012.49
2022-08-18T19:58:02.520Z,1012.49
2022-08-18T20:00:04.945Z,1012.39
2022-08-18T20:02:01.909Z,1012.39
2022-08-18T20:04:02.181Z,1012.4
2022-08-18T20:06:35.888Z,1012.4
2022-08-18T20:08:01.853Z,1012.3
2022-08-18T20:10:02.678Z,1012.3
2022-08-18T20:12:01.979Z,1012.41
2022-08-18T20:14:03.188Z,1012.41
2022-08-18T20:16:02.076Z,1012.54
2022-08-18T20:18:02.082Z,1012.54
2022-08-18T20:20:01.849Z,1012.48
2022-08-18T20:22:02.192Z,1012.48
2022-08-18T20:24:02.058Z,1012.53
2022-08-18T20:26:01.882Z,1012.53
2022-08-18T20:28:01.634Z,1012.46
2022-08-18T20:30:01.843Z,1012.46
2022-08-18T20:32:02.314Z,1012.47
2022-08-18T20:34:02.436Z,1012.47
2022-08-18T20:36:02.258Z,1012.39
2022-08-18T20:38:06.354Z,1012.39
2022-08-18T20:40:02.630Z,1012.33
2022-08-18T20:42:01.677Z,1012.33
2022-08-18T20:44:01.684Z,1012.38
2022-08-18T20:46:02.367Z,1012.38
2022-08-18T20:48:01.597Z,1012.39
2022-08-18T20:50:01.670Z,1012.39
2022-08-18T20:52:06.736Z,1012.49
2022-08-18T20:54:02.564Z,1012.49
2022-08-18T20:56:31.561Z,1012.48
2022-08-18T20:58:03.977Z,1012.48
2022-08-18T21:00:08.424Z,1012.53
2022-08-18T21:02:02.475Z,1012.53
2022-08-18T21:04:01.973Z,1012.55
2022-08-18T21:06:02.215Z,1012.55
2022-08-18T21:08:01.740Z,1012.38
2022-08-18T21:10:13.734Z,1012.38
2022-08-18T21:12:01.779Z,1012.37
2022-08-18T21:14:04.979Z,1012.37
2022-08-18T21:16:02.029Z,1012.36
2022-08-18T21:18:02.155Z,1012.36
2022-08-18T21:20:01.990Z,1012.33
2022-08-18T21:22:01.913Z,1012.33
2022-08-18T21:24:01.882Z,1012.28
2022-08-18T21:26:06.791Z,1012.28
2022-08-18T21:28:02.495Z,1012.3
2022-08-18T21:30:01.945Z,1012.3
2022-08-18T21:32:02.422Z,1012.28
2022-08-18T21:34:01.599Z,1012.28
2022-08-18T21:36:01.747Z,1012.19
2022-08-18T21:38:01.819Z,1012.19
2022-08-18T21:40:02.112Z,1012.26
2022-08-18T21:42:02.331Z,1012.26
2022-08-18T21:44:02.012Z,1012.29
2022-08-18T21:46:02.144Z,1012.29
2022-08-18T21:48:02.520Z,1012.24
2022-08-18T21:50:02.224Z,1012.24
2022-08-18T21:52:01.598Z,1012.21
2022-08-18T21:54:02.020Z,1012.21
2022-08-18T21:56:01.603Z,1012.26
2022-08-18T21:58:01.824Z,1012.26
2022-08-18T22:00:10.097Z,1012.35
2022-08-18T22:02:02.137Z,1012.35
2022-08-18T22:04:02.224Z,1012.38
2022-08-18T22:06:02.334Z,1012.38
2022-08-18T22:08:01.977Z,1012.23
2022-08-18T22:10:05.875Z,1012.23
2022-08-18T22:12:03.045Z,1012.39
2022-08-18T22:14:03.558Z,1012.39
2022-08-18T22:16:02.162Z,1012.35
2022-08-18T22:18:01.736Z,1012.35
2022-08-18T22:20:01.881Z,1012.38
2022-08-18T22:22:02.234Z,1012.38
2022-08-18T22:24:01.881Z,1012.52
2022-08-18T22:26:02.086Z,1012.52
2022-08-18T22:28:02.217Z,1012.49
2022-08-18T22:30:01.960Z,1012.49
2022-08-18T22:32:02.556Z,1012.55
2022-08-18T22:34:01.540Z,1012.55
2022-08-18T22:36:02.092Z,1012.51
2022-08-18T22:38:02.353Z,1012.51
2022-08-18T22:40:02.019Z,1012.41
2022-08-18T22:42:02.122Z,1012.41
2022-08-18T22:44:02.198Z,1012.54
2022-08-18T22:46:01.683Z,1012.54
2022-08-18T22:48:01.855Z,1012.5
2022-08-18T22:50:01.978Z,1012.5
2022-08-18T22:52:01.669Z,1012.63
2022-08-18T22:54:01.975Z,1012.59
2022-08-18T22:56:07.578Z,1012.59
2022-08-18T22:58:02.846Z,1012.58
2022-08-18T23:00:04.720Z,1012.58
2022-08-18T23:02:02.526Z,1012.59
2022-08-18T23:04:01.590Z,1012.59
2022-08-18T23:06:01.979Z,1012.54
2022-08-18T23:08:01.856Z,1012.54
2022-08-18T23:10:01.947Z,1012.59
2022-08-18T23:12:02.364Z,1012.59
2022-08-18T23:14:02.067Z,1012.63
2022-08-18T23:16:32.552Z,1012.63
2022-08-18T23:18:02.366Z,1012.54
2022-08-18T23:20:02.647Z,1012.54
2022-08-18T23:22:02.051Z,1012.53
2022-08-18T23:24:01.926Z,1012.53
2022-08-18T23:26:02.355Z,1012.42
2022-08-18T23:28:02.228Z,1012.42
2022-08-18T23:30:02.328Z,1012.43
2022-08-18T23:32:01.627Z,1012.43
2022-08-18T23:34:01.913Z,1012.39
2022-08-18T23:36:02.182Z,1012.39
2022-08-18T23:38:02.420Z,1012.43
2022-08-18T23:40:02.206Z,1012.43
2022-08-18T23:42:02.446Z,1012.48
2022-08-18T23:44:01.808Z,1012.48
2022-08-18T23:46:02.137Z,1012.39
2022-08-18T23:48:01.726Z,1012.39
2022-08-18T23:50:02.577Z,1012.41
2022-08-18T23:52:02.234Z,1012.41
2022-08-18T23:54:02.335Z,1012.51
2022-08-18T23:56:01.657Z,1012.51
2022-08-18T23:58:02.182Z,1012.51
